sensor_id;sensor_type;location;lat;lon;timestamp;P1;durP1;ratioP1;P2;durP2;ratioP2
7412;SDS011;3748;48.136;11.538;2022-12-07T00:00:13;17.83;;;11.43;;
7412;SDS011;3748;48.136;11.538;2022-12-07T00:02:42;16.57;;;10.93;;
7412;SDS011;3748;48.136;11.538;2022-12-07T00:05:09;20.53;;;11.20;;
7412;SDS011;3748;48.136;11.538;2022-12-07T00:07:36;15.80;;;10.27;;
7412;SDS011;3748;48.136;11.538;2022-12-07T00:10:05;14.00;;;10.70;;
7412;SDS011;3748;48.136;11.538;2022-12-07T00:12:33;17.50;;;11.60;;
7412;SDS011;3748;48.136;11.538;2022-12-07T00:14:59;13.70;;;10.03;;
7412;SDS011;3748;48.136;11.538;2022-12-07T00:17:26;18.40;;;11.30;;
7412;SDS011;3748;48.136;11.538;2022-12-07T00:19:54;16.40;;;10.63;;
7412;SDS011;3748;48.136;11.538;2022-12-07T00:22:21;18.63;;;11.33;;
7412;SDS011;3748;48.136;11.538;2022-12-07T00:24:48;15.10;;;10.20;;
7412;SDS011;3748;48.136;11.538;2022-12-07T00:27:15;20.30;;;12.53;;
7412;SDS011;3748;48.136;11.538;2022-12-07T00:29:41;16.30;;;10.77;;
7412;SDS011;3748;48.136;11.538;2022-12-07T00:32:08;17.90;;;10.70;;
7412;SDS011;3748;48.136;11.538;2022-12-07T00:34:35;14.50;;;9.87;;
7412;SDS011;3748;48.136;11.538;2022-12-07T00:37:03;16.27;;;10.17;;
7412;SDS011;3748;48.136;11.538;2022-12-07T00:39:30;16.03;;;11.17;;
7412;SDS011;3748;48.136;11.538;2022-12-07T00:41:57;16.40;;;10.30;;
7412;SDS011;3748;48.136;11.538;2022-12-07T00:44:24;17.10;;;10.53;;
7412;SDS011;3748;48.136;11.538;2022-12-07T00:46:50;16.37;;;10.60;;
7412;SDS011;3748;48.136;11.538;2022-12-07T00:49:17;16.50;;;10.37;;
7412;SDS011;3748;48.136;11.538;2022-12-07T00:51:44;14.63;;;10.10;;
7412;SDS011;3748;48.136;11.538;2022-12-07T00:54:15;14.87;;;11.80;;
7412;SDS011;3748;48.136;11.538;2022-12-07T00:56:42;15.03;;;10.60;;
7412;SDS011;3748;48.136;11.538;2022-12-07T00:59:10;15.53;;;10.63;;
7412;SDS011;3748;48.136;11.538;2022-12-07T01:01:40;16.10;;;10.20;;
7412;SDS011;3748;48.136;11.538;2022-12-07T01:04:07;13.73;;;8.03;;
7412;SDS011;3748;48.136;11.538;2022-12-07T01:06:34;14.07;;;8.97;;
7412;SDS011;3748;48.136;11.538;2022-12-07T01:09:00;16.10;;;9.30;;
7412;SDS011;3748;48.136;11.538;2022-12-07T01:11:30;15.27;;;9.47;;
7412;SDS011;3748;48.136;11.538;2022-12-07T01:13:58;20.60;;;10.40;;
7412;SDS011;3748;48.136;11.538;2022-12-07T01:16:26;13.30;;;8.10;;
7412;SDS011;3748;48.136;11.538;2022-12-07T01:18:55;14.57;;;8.83;;
7412;SDS011;3748;48.136;11.538;2022-12-07T01:21:23;14.67;;;8.60;;
7412;SDS011;3748;48.136;11.538;2022-12-07T01:23:51;14.70;;;9.03;;
7412;SDS011;3748;48.136;11.538;2022-12-07T01:26:19;12.70;;;7.43;;
7412;SDS011;3748;48.136;11.538;2022-12-07T01:28:49;11.20;;;8.00;;
7412;SDS011;3748;48.136;11.538;2022-12-07T01:31:17;11.50;;;7.70;;
7412;SDS011;3748;48.136;11.538;2022-12-07T01:33:47;12.63;;;9.30;;
7412;SDS011;3748;48.136;11.538;2022-12-07T01:36:15;11.53;;;7.60;;
7412;SDS011;3748;48.136;11.538;2022-12-07T01:38:44;12.63;;;8.50;;
7412;SDS011;3748;48.136;11.538;2022-12-07T01:41:12;11.57;;;7.80;;
7412;SDS011;3748;48.136;11.538;2022-12-07T01:44:06;13.30;;;7.70;;
7412;SDS011;3748;48.136;11.538;2022-12-07T01:46:48;12.73;;;8.00;;
7412;SDS011;3748;48.136;11.538;2022-12-07T01:52:07;13.07;;;7.90;;
7412;SDS011;3748;48.136;11.538;2022-12-07T01:54:41;14.27;;;10.00;;
7412;SDS011;3748;48.136;11.538;2022-12-07T01:57:10;12.00;;;8.77;;
7412;SDS011;3748;48.136;11.538;2022-12-07T01:59:37;15.10;;;9.77;;
7412;SDS011;3748;48.136;11.538;2022-12-07T02:02:07;13.43;;;8.80;;
7412;SDS011;3748;48.136;11.538;2022-12-07T02:04:38;12.50;;;8.90;;
7412;SDS011;3748;48.136;11.538;2022-12-07T02:07:05;11.97;;;8.70;;
7412;SDS011;3748;48.136;11.538;2022-12-07T02:09:33;13.07;;;8.57;;
7412;SDS011;3748;48.136;11.538;2022-12-07T02:11:59;14.67;;;9.30;;
7412;SDS011;3748;48.136;11.538;2022-12-07T02:14:26;21.00;;;10.40;;
7412;SDS011;3748;48.136;11.538;2022-12-07T02:16:57;18.13;;;10.77;;
7412;SDS011;3748;48.136;11.538;2022-12-07T02:22:51;13.93;;;9.60;;
7412;SDS011;3748;48.136;11.538;2022-12-07T02:25:51;14.93;;;8.73;;
7412;SDS011;3748;48.136;11.538;2022-12-07T02:28:51;13.67;;;8.53;;
7412;SDS011;3748;48.136;11.538;2022-12-07T02:31:31;14.47;;;8.87;;
7412;SDS011;3748;48.136;11.538;2022-12-07T02:34:00;14.57;;;8.50;;
7412;SDS011;3748;48.136;11.538;2022-12-07T02:36:35;12.23;;;8.60;;
7412;SDS011;3748;48.136;11.538;2022-12-07T02:39:06;12.03;;;8.60;;
7412;SDS011;3748;48.136;11.538;2022-12-07T02:41:37;15.87;;;10.10;;
7412;SDS011;3748;48.136;11.538;2022-12-07T02:44:11;18.63;;;9.00;;
7412;SDS011;3748;48.136;11.538;2022-12-07T02:46:43;15.30;;;9.20;;
7412;SDS011;3748;48.136;11.538;2022-12-07T02:49:14;12.50;;;9.00;;
7412;SDS011;3748;48.136;11.538;2022-12-07T02:51:42;15.53;;;9.30;;
7412;SDS011;3748;48.136;11.538;2022-12-07T02:54:12;14.03;;;9.20;;
7412;SDS011;3748;48.136;11.538;2022-12-07T02:56:42;13.20;;;8.60;;
7412;SDS011;3748;48.136;11.538;2022-12-07T02:59:16;14.80;;;8.63;;
7412;SDS011;3748;48.136;11.538;2022-12-07T03:01:52;15.43;;;10.80;;
7412;SDS011;3748;48.136;11.538;2022-12-07T03:04:28;14.60;;;9.00;;
7412;SDS011;3748;48.136;11.538;2022-12-07T03:07:05;15.20;;;9.90;;
7412;SDS011;3748;48.136;11.538;2022-12-07T03:09:41;17.47;;;10.50;;
7412;SDS011;3748;48.136;11.538;2022-12-07T03:12:16;17.67;;;9.73;;
7412;SDS011;3748;48.136;11.538;2022-12-07T03:14:49;19.50;;;10.50;;
7412;SDS011;3748;48.136;11.538;2022-12-07T03:17:24;13.87;;;9.50;;
7412;SDS011;3748;48.136;11.538;2022-12-07T03:19:56;14.70;;;9.23;;
7412;SDS011;3748;48.136;11.538;2022-12-07T03:22:25;15.90;;;8.83;;
7412;SDS011;3748;48.136;11.538;2022-12-07T03:24:58;14.00;;;8.50;;
7412;SDS011;3748;48.136;11.538;2022-12-07T03:27:28;15.60;;;9.90;;
7412;SDS011;3748;48.136;11.538;2022-12-07T03:30:00;14.30;;;10.20;;
7412;SDS011;3748;48.136;11.538;2022-12-07T03:32:30;15.20;;;9.40;;
7412;SDS011;3748;48.136;11.538;2022-12-07T03:35:01;19.17;;;11.00;;
7412;SDS011;3748;48.136;11.538;2022-12-07T03:37:32;13.80;;;9.17;;
7412;SDS011;3748;48.136;11.538;2022-12-07T03:40:03;10.40;;;7.83;;
7412;SDS011;3748;48.136;11.538;2022-12-07T03:42:37;13.37;;;8.47;;
7412;SDS011;3748;48.136;11.538;2022-12-07T03:45:06;13.00;;;8.53;;
7412;SDS011;3748;48.136;11.538;2022-12-07T03:47:34;12.73;;;7.70;;
7412;SDS011;3748;48.136;11.538;2022-12-07T03:50:10;13.70;;;9.00;;
7412;SDS011;3748;48.136;11.538;2022-12-07T03:52:42;17.50;;;9.47;;
7412;SDS011;3748;48.136;11.538;2022-12-07T03:55:14;15.93;;;9.90;;
7412;SDS011;3748;48.136;11.538;2022-12-07T03:57:45;12.53;;;9.00;;
7412;SDS011;3748;48.136;11.538;2022-12-07T04:00:16;12.53;;;8.77;;
7412;SDS011;3748;48.136;11.538;2022-12-07T04:02:43;12.03;;;8.50;;
7412;SDS011;3748;48.136;11.538;2022-12-07T04:05:10;12.90;;;9.10;;
7412;SDS011;3748;48.136;11.538;2022-12-07T04:07:37;12.80;;;8.60;;
7412;SDS011;3748;48.136;11.538;2022-12-07T04:10:05;13.47;;;8.87;;
7412;SDS011;3748;48.136;11.538;2022-12-07T04:12:32;18.50;;;9.83;;
7412;SDS011;3748;48.136;11.538;2022-12-07T04:14:59;13.97;;;8.67;;
7412;SDS011;3748;48.136;11.538;2022-12-07T04:17:27;13.03;;;9.10;;
7412;SDS011;3748;48.136;11.538;2022-12-07T04:19:54;13.70;;;10.23;;
7412;SDS011;3748;48.136;11.538;2022-12-07T04:22:21;15.73;;;9.77;;
7412;SDS011;3748;48.136;11.538;2022-12-07T04:24:48;15.77;;;9.93;;
7412;SDS011;3748;48.136;11.538;2022-12-07T04:27:14;20.73;;;11.80;;
7412;SDS011;3748;48.136;11.538;2022-12-07T04:29:41;15.27;;;10.07;;
7412;SDS011;3748;48.136;11.538;2022-12-07T04:32:08;17.73;;;11.33;;
7412;SDS011;3748;48.136;11.538;2022-12-07T04:34:36;18.90;;;12.30;;
7412;SDS011;3748;48.136;11.538;2022-12-07T04:37:04;14.97;;;10.10;;
7412;SDS011;3748;48.136;11.538;2022-12-07T04:39:31;21.47;;;12.00;;
7412;SDS011;3748;48.136;11.538;2022-12-07T04:41:59;18.80;;;11.67;;
7412;SDS011;3748;48.136;11.538;2022-12-07T04:44:27;17.70;;;10.90;;
7412;SDS011;3748;48.136;11.538;2022-12-07T04:46:55;17.40;;;12.37;;
7412;SDS011;3748;48.136;11.538;2022-12-07T04:49:23;20.20;;;12.27;;
7412;SDS011;3748;48.136;11.538;2022-12-07T04:51:52;22.40;;;11.77;;
7412;SDS011;3748;48.136;11.538;2022-12-07T04:54:19;25.93;;;12.73;;
7412;SDS011;3748;48.136;11.538;2022-12-07T04:56:46;20.57;;;13.10;;
7412;SDS011;3748;48.136;11.538;2022-12-07T04:59:13;25.17;;;12.83;;
7412;SDS011;3748;48.136;11.538;2022-12-07T05:01:41;22.07;;;11.47;;
7412;SDS011;3748;48.136;11.538;2022-12-07T05:04:08;22.20;;;13.27;;
7412;SDS011;3748;48.136;11.538;2022-12-07T05:06:35;21.63;;;12.17;;
7412;SDS011;3748;48.136;11.538;2022-12-07T05:09:04;19.87;;;11.10;;
7412;SDS011;3748;48.136;11.538;2022-12-07T05:11:30;22.83;;;13.60;;
7412;SDS011;3748;48.136;11.538;2022-12-07T05:14:08;20.23;;;12.57;;
7412;SDS011;3748;48.136;11.538;2022-12-07T05:16:37;16.93;;;11.70;;
7412;SDS011;3748;48.136;11.538;2022-12-07T05:19:05;21.93;;;11.97;;
7412;SDS011;3748;48.136;11.538;2022-12-07T05:21:33;23.13;;;13.47;;
7412;SDS011;3748;48.136;11.538;2022-12-07T05:24:00;17.63;;;11.80;;
7412;SDS011;3748;48.136;11.538;2022-12-07T05:26:29;21.27;;;11.77;;
7412;SDS011;3748;48.136;11.538;2022-12-07T05:28:57;21.70;;;13.30;;
7412;SDS011;3748;48.136;11.538;2022-12-07T05:31:28;20.57;;;12.43;;
7412;SDS011;3748;48.136;11.538;2022-12-07T05:33:55;22.37;;;13.33;;
7412;SDS011;3748;48.136;11.538;2022-12-07T05:36:22;21.40;;;14.17;;
7412;SDS011;3748;48.136;11.538;2022-12-07T05:38:49;23.13;;;13.43;;
7412;SDS011;3748;48.136;11.538;2022-12-07T05:41:17;24.10;;;13.50;;
7412;SDS011;3748;48.136;11.538;2022-12-07T05:44:03;22.90;;;14.23;;
7412;SDS011;3748;48.136;11.538;2022-12-07T05:46:30;25.10;;;13.60;;
7412;SDS011;3748;48.136;11.538;2022-12-07T05:48:58;24.63;;;15.13;;
7412;SDS011;3748;48.136;11.538;2022-12-07T05:51:24;19.50;;;13.70;;
7412;SDS011;3748;48.136;11.538;2022-12-07T05:53:51;25.70;;;13.20;;
7412;SDS011;3748;48.136;11.538;2022-12-07T05:56:18;23.90;;;14.13;;
7412;SDS011;3748;48.136;11.538;2022-12-07T05:58:45;21.70;;;12.40;;
7412;SDS011;3748;48.136;11.538;2022-12-07T06:01:30;24.27;;;14.10;;
7412;SDS011;3748;48.136;11.538;2022-12-07T06:03:57;21.60;;;13.43;;
7412;SDS011;3748;48.136;11.538;2022-12-07T06:06:24;20.37;;;12.30;;
7412;SDS011;3748;48.136;11.538;2022-12-07T06:08:51;19.90;;;12.90;;
7412;SDS011;3748;48.136;11.538;2022-12-07T06:11:18;23.53;;;14.10;;
7412;SDS011;3748;48.136;11.538;2022-12-07T06:14:02;22.03;;;14.00;;
7412;SDS011;3748;48.136;11.538;2022-12-07T06:16:30;24.60;;;12.90;;
7412;SDS011;3748;48.136;11.538;2022-12-07T06:18:57;22.50;;;11.77;;
7412;SDS011;3748;48.136;11.538;2022-12-07T06:21:24;21.73;;;13.00;;
7412;SDS011;3748;48.136;11.538;2022-12-07T06:23:51;21.27;;;13.70;;
7412;SDS011;3748;48.136;11.538;2022-12-07T06:26:18;23.40;;;13.57;;
7412;SDS011;3748;48.136;11.538;2022-12-07T06:28:45;25.60;;;12.83;;
7412;SDS011;3748;48.136;11.538;2022-12-07T06:31:13;23.03;;;13.30;;
7412;SDS011;3748;48.136;11.538;2022-12-07T06:33:42;27.80;;;15.73;;
7412;SDS011;3748;48.136;11.538;2022-12-07T06:36:09;24.83;;;12.63;;
7412;SDS011;3748;48.136;11.538;2022-12-07T06:38:38;30.10;;;14.23;;
7412;SDS011;3748;48.136;11.538;2022-12-07T06:52:24;18.87;;;12.50;;
7412;SDS011;3748;48.136;11.538;2022-12-07T06:54:51;20.90;;;12.60;;
7412;SDS011;3748;48.136;11.538;2022-12-07T07:04:58;23.77;;;13.47;;
7412;SDS011;3748;48.136;11.538;2022-12-07T07:07:26;18.00;;;12.87;;
7412;SDS011;3748;48.136;11.538;2022-12-07T07:09:53;18.90;;;11.70;;
7412;SDS011;3748;48.136;11.538;2022-12-07T07:12:20;20.40;;;11.83;;
7412;SDS011;3748;48.136;11.538;2022-12-07T07:14:47;17.30;;;12.43;;
7412;SDS011;3748;48.136;11.538;2022-12-07T07:17:14;18.23;;;12.53;;
7412;SDS011;3748;48.136;11.538;2022-12-07T07:19:41;21.03;;;13.70;;
7412;SDS011;3748;48.136;11.538;2022-12-07T07:22:08;21.00;;;12.57;;
7412;SDS011;3748;48.136;11.538;2022-12-07T07:24:36;23.23;;;13.33;;
7412;SDS011;3748;48.136;11.538;2022-12-07T07:27:03;20.67;;;13.67;;
7412;SDS011;3748;48.136;11.538;2022-12-07T07:29:30;19.43;;;12.67;;
7412;SDS011;3748;48.136;11.538;2022-12-07T07:31:56;21.30;;;11.07;;
7412;SDS011;3748;48.136;11.538;2022-12-07T07:34:23;19.63;;;11.80;;
7412;SDS011;3748;48.136;11.538;2022-12-07T07:36:50;24.47;;;14.10;;
7412;SDS011;3748;48.136;11.538;2022-12-07T07:39:17;21.20;;;12.20;;
7412;SDS011;3748;48.136;11.538;2022-12-07T07:41:45;21.63;;;12.70;;
7412;SDS011;3748;48.136;11.538;2022-12-07T07:44:12;19.80;;;11.97;;
7412;SDS011;3748;48.136;11.538;2022-12-07T07:46:39;19.10;;;11.53;;
7412;SDS011;3748;48.136;11.538;2022-12-07T07:49:06;21.90;;;12.00;;
7412;SDS011;3748;48.136;11.538;2022-12-07T07:51:35;21.23;;;12.10;;
7412;SDS011;3748;48.136;11.538;2022-12-07T07:54:01;20.60;;;12.10;;
7412;SDS011;3748;48.136;11.538;2022-12-07T07:56:29;16.97;;;10.10;;
7412;SDS011;3748;48.136;11.538;2022-12-07T07:58:57;20.43;;;11.57;;
7412;SDS011;3748;48.136;11.538;2022-12-07T08:01:25;25.50;;;13.33;;
7412;SDS011;3748;48.136;11.538;2022-12-07T08:03:52;21.33;;;13.67;;
7412;SDS011;3748;48.136;11.538;2022-12-07T08:06:19;18.97;;;10.33;;
7412;SDS011;3748;48.136;11.538;2022-12-07T08:08:46;19.23;;;11.10;;
7412;SDS011;3748;48.136;11.538;2022-12-07T08:11:13;25.70;;;12.73;;
7412;SDS011;3748;48.136;11.538;2022-12-07T08:13:42;22.90;;;11.57;;
7412;SDS011;3748;48.136;11.538;2022-12-07T08:16:13;22.03;;;12.90;;
7412;SDS011;3748;48.136;11.538;2022-12-07T13:08:46;10.70;;;6.30;;
7412;SDS011;3748;48.136;11.538;2022-12-07T13:11:17;10.23;;;5.67;;
7412;SDS011;3748;48.136;11.538;2022-12-07T13:13:46;9.67;;;6.63;;
7412;SDS011;3748;48.136;11.538;2022-12-07T13:25:10;12.30;;;7.07;;
7412;SDS011;3748;48.136;11.538;2022-12-07T13:27:46;10.90;;;6.63;;
7412;SDS011;3748;48.136;11.538;2022-12-07T13:30:20;8.93;;;6.50;;
7412;SDS011;3748;48.136;11.538;2022-12-07T13:32:52;8.47;;;5.70;;
7412;SDS011;3748;48.136;11.538;2022-12-07T13:35:27;10.90;;;6.70;;
7412;SDS011;3748;48.136;11.538;2022-12-07T13:37:59;10.20;;;6.20;;
7412;SDS011;3748;48.136;11.538;2022-12-07T13:40:30;12.67;;;7.37;;
7412;SDS011;3748;48.136;11.538;2022-12-07T13:42:57;9.93;;;6.40;;
7412;SDS011;3748;48.136;11.538;2022-12-07T13:45:26;12.23;;;5.70;;
7412;SDS011;3748;48.136;11.538;2022-12-07T13:56:33;11.93;;;6.83;;
7412;SDS011;3748;48.136;11.538;2022-12-07T13:59:02;17.60;;;8.10;;
7412;SDS011;3748;48.136;11.538;2022-12-07T14:01:31;12.50;;;7.57;;
7412;SDS011;3748;48.136;11.538;2022-12-07T14:06:47;14.60;;;7.47;;
7412;SDS011;3748;48.136;11.538;2022-12-07T14:09:17;15.83;;;6.70;;
7412;SDS011;3748;48.136;11.538;2022-12-07T14:11:47;9.83;;;6.93;;
7412;SDS011;3748;48.136;11.538;2022-12-07T14:14:16;12.07;;;7.23;;
7412;SDS011;3748;48.136;11.538;2022-12-07T14:16:56;11.73;;;7.20;;
7412;SDS011;3748;48.136;11.538;2022-12-07T14:22:19;11.23;;;6.17;;
7412;SDS011;3748;48.136;11.538;2022-12-07T14:25:18;12.50;;;5.90;;
7412;SDS011;3748;48.136;11.538;2022-12-07T14:27:55;12.70;;;6.00;;
7412;SDS011;3748;48.136;11.538;2022-12-07T14:30:24;10.47;;;7.13;;
7412;SDS011;3748;48.136;11.538;2022-12-07T14:32:54;7.30;;;5.70;;
7412;SDS011;3748;48.136;11.538;2022-12-07T14:35:23;7.57;;;5.13;;
7412;SDS011;3748;48.136;11.538;2022-12-07T14:37:50;7.30;;;5.80;;
7412;SDS011;3748;48.136;11.538;2022-12-07T14:40:18;9.27;;;5.20;;
7412;SDS011;3748;48.136;11.538;2022-12-07T14:42:46;6.93;;;5.17;;
7412;SDS011;3748;48.136;11.538;2022-12-07T14:45:19;8.73;;;4.77;;
7412;SDS011;3748;48.136;11.538;2022-12-07T14:47:48;7.03;;;4.50;;
7412;SDS011;3748;48.136;11.538;2022-12-07T14:50:15;7.47;;;4.93;;
7412;SDS011;3748;48.136;11.538;2022-12-07T14:52:45;8.40;;;4.60;;
7412;SDS011;3748;48.136;11.538;2022-12-07T14:55:16;8.30;;;5.20;;
7412;SDS011;3748;48.136;11.538;2022-12-07T14:57:48;10.13;;;5.70;;
7412;SDS011;3748;48.136;11.538;2022-12-07T15:00:20;7.47;;;5.10;;
7412;SDS011;3748;48.136;11.538;2022-12-07T15:02:48;10.00;;;5.37;;
7412;SDS011;3748;48.136;11.538;2022-12-07T15:05:17;10.27;;;4.90;;
7412;SDS011;3748;48.136;11.538;2022-12-07T15:07:45;7.73;;;5.33;;
7412;SDS011;3748;48.136;11.538;2022-12-07T15:10:14;11.23;;;5.90;;
7412;SDS011;3748;48.136;11.538;2022-12-07T15:12:44;7.17;;;5.13;;
7412;SDS011;3748;48.136;11.538;2022-12-07T15:15:11;10.77;;;5.63;;
7412;SDS011;3748;48.136;11.538;2022-12-07T15:17:39;12.20;;;6.40;;
7412;SDS011;3748;48.136;11.538;2022-12-07T15:20:08;7.90;;;5.10;;
7412;SDS011;3748;48.136;11.538;2022-12-07T15:22:37;8.90;;;6.10;;
7412;SDS011;3748;48.136;11.538;2022-12-07T15:25:05;7.13;;;5.70;;
7412;SDS011;3748;48.136;11.538;2022-12-07T15:27:33;10.20;;;6.00;;
7412;SDS011;3748;48.136;11.538;2022-12-07T15:30:00;9.33;;;5.07;;
7412;SDS011;3748;48.136;11.538;2022-12-07T15:32:26;9.10;;;5.40;;
7412;SDS011;3748;48.136;11.538;2022-12-07T15:34:55;12.90;;;7.20;;
7412;SDS011;3748;48.136;11.538;2022-12-07T15:37:21;8.40;;;5.53;;
7412;SDS011;3748;48.136;11.538;2022-12-07T15:39:48;12.93;;;6.57;;
7412;SDS011;3748;48.136;11.538;2022-12-07T15:42:15;13.60;;;6.70;;
7412;SDS011;3748;48.136;11.538;2022-12-07T15:44:42;12.77;;;6.40;;
7412;SDS011;3748;48.136;11.538;2022-12-07T15:47:25;11.20;;;5.67;;
7412;SDS011;3748;48.136;11.538;2022-12-07T15:49:52;7.90;;;5.03;;
7412;SDS011;3748;48.136;11.538;2022-12-07T15:52:20;12.93;;;6.33;;
7412;SDS011;3748;48.136;11.538;2022-12-07T15:54:47;10.90;;;7.63;;
7412;SDS011;3748;48.136;11.538;2022-12-07T15:57:14;8.13;;;5.93;;
7412;SDS011;3748;48.136;11.538;2022-12-07T15:59:41;11.50;;;7.67;;
7412;SDS011;3748;48.136;11.538;2022-12-07T16:02:09;13.03;;;7.23;;
7412;SDS011;3748;48.136;11.538;2022-12-07T16:04:36;10.50;;;7.90;;
7412;SDS011;3748;48.136;11.538;2022-12-07T16:07:04;11.37;;;8.20;;
7412;SDS011;3748;48.136;11.538;2022-12-07T16:09:31;10.73;;;6.73;;
7412;SDS011;3748;48.136;11.538;2022-12-07T16:11:58;10.20;;;7.30;;
7412;SDS011;3748;48.136;11.538;2022-12-07T16:14:25;11.80;;;7.87;;
7412;SDS011;3748;48.136;11.538;2022-12-07T16:16:52;11.00;;;7.07;;
7412;SDS011;3748;48.136;11.538;2022-12-07T16:19:19;18.13;;;8.67;;
7412;SDS011;3748;48.136;11.538;2022-12-07T16:21:46;12.57;;;8.90;;
7412;SDS011;3748;48.136;11.538;2022-12-07T16:24:14;10.63;;;7.43;;
7412;SDS011;3748;48.136;11.538;2022-12-07T16:26:41;16.20;;;8.57;;
7412;SDS011;3748;48.136;11.538;2022-12-07T16:29:10;8.67;;;6.43;;
7412;SDS011;3748;48.136;11.538;2022-12-07T16:31:38;9.87;;;6.40;;
7412;SDS011;3748;48.136;11.538;2022-12-07T16:34:05;15.90;;;9.43;;
7412;SDS011;3748;48.136;11.538;2022-12-07T16:36:33;17.13;;;8.57;;
7412;SDS011;3748;48.136;11.538;2022-12-07T16:39:00;9.10;;;6.13;;
7412;SDS011;3748;48.136;11.538;2022-12-07T16:41:29;13.83;;;8.27;;
7412;SDS011;3748;48.136;11.538;2022-12-07T16:43:56;15.83;;;7.27;;
7412;SDS011;3748;48.136;11.538;2022-12-07T16:46:27;12.10;;;7.23;;
7412;SDS011;3748;48.136;11.538;2022-12-07T16:48:54;11.70;;;7.37;;
7412;SDS011;3748;48.136;11.538;2022-12-07T16:51:22;13.07;;;7.70;;
7412;SDS011;3748;48.136;11.538;2022-12-07T16:53:49;12.53;;;9.00;;
7412;SDS011;3748;48.136;11.538;2022-12-07T16:56:19;10.53;;;7.30;;
7412;SDS011;3748;48.136;11.538;2022-12-07T16:58:49;15.50;;;8.30;;
7412;SDS011;3748;48.136;11.538;2022-12-07T17:01:17;12.53;;;7.80;;
7412;SDS011;3748;48.136;11.538;2022-12-07T17:03:45;19.23;;;9.47;;
7412;SDS011;3748;48.136;11.538;2022-12-07T17:06:13;15.47;;;8.50;;
7412;SDS011;3748;48.136;11.538;2022-12-07T17:08:42;12.13;;;7.93;;
7412;SDS011;3748;48.136;11.538;2022-12-07T17:11:10;9.90;;;7.50;;
7412;SDS011;3748;48.136;11.538;2022-12-07T17:13:37;13.60;;;8.47;;
7412;SDS011;3748;48.136;11.538;2022-12-07T17:16:23;15.23;;;9.10;;
7412;SDS011;3748;48.136;11.538;2022-12-07T17:18:50;14.13;;;7.70;;
7412;SDS011;3748;48.136;11.538;2022-12-07T17:21:17;18.40;;;9.27;;
7412;SDS011;3748;48.136;11.538;2022-12-07T17:23:45;19.43;;;9.70;;
7412;SDS011;3748;48.136;11.538;2022-12-07T17:26:13;16.63;;;7.80;;
7412;SDS011;3748;48.136;11.538;2022-12-07T17:28:42;16.90;;;8.20;;
7412;SDS011;3748;48.136;11.538;2022-12-07T17:31:10;15.47;;;9.30;;
7412;SDS011;3748;48.136;11.538;2022-12-07T17:33:40;16.97;;;9.77;;
7412;SDS011;3748;48.136;11.538;2022-12-07T17:36:11;14.07;;;8.43;;
7412;SDS011;3748;48.136;11.538;2022-12-07T17:38:41;13.30;;;8.70;;
7412;SDS011;3748;48.136;11.538;2022-12-07T17:41:09;13.30;;;9.00;;
7412;SDS011;3748;48.136;11.538;2022-12-07T17:44:00;14.17;;;8.30;;
7412;SDS011;3748;48.136;11.538;2022-12-07T17:46:29;14.37;;;9.27;;
7412;SDS011;3748;48.136;11.538;2022-12-07T17:48:58;17.40;;;9.80;;
7412;SDS011;3748;48.136;11.538;2022-12-07T17:51:26;16.17;;;8.20;;
7412;SDS011;3748;48.136;11.538;2022-12-07T17:54:10;14.07;;;8.70;;
7412;SDS011;3748;48.136;11.538;2022-12-07T17:56:38;18.50;;;9.80;;
7412;SDS011;3748;48.136;11.538;2022-12-07T17:59:05;16.47;;;8.33;;
7412;SDS011;3748;48.136;11.538;2022-12-07T18:01:33;16.30;;;9.10;;
7412;SDS011;3748;48.136;11.538;2022-12-07T18:04:01;15.73;;;9.77;;
7412;SDS011;3748;48.136;11.538;2022-12-07T18:06:28;14.40;;;8.60;;
7412;SDS011;3748;48.136;11.538;2022-12-07T18:08:56;16.83;;;9.83;;
7412;SDS011;3748;48.136;11.538;2022-12-07T18:11:23;13.70;;;7.90;;
7412;SDS011;3748;48.136;11.538;2022-12-07T18:13:50;13.97;;;8.83;;
7412;SDS011;3748;48.136;11.538;2022-12-07T18:16:19;16.23;;;8.27;;
7412;SDS011;3748;48.136;11.538;2022-12-07T18:18:47;17.73;;;9.57;;
7412;SDS011;3748;48.136;11.538;2022-12-07T18:21:20;17.13;;;8.70;;
7412;SDS011;3748;48.136;11.538;2022-12-07T18:23:49;14.10;;;9.33;;
7412;SDS011;3748;48.136;11.538;2022-12-07T18:26:17;17.70;;;9.20;;
7412;SDS011;3748;48.136;11.538;2022-12-07T18:28:45;16.90;;;10.60;;
7412;SDS011;3748;48.136;11.538;2022-12-07T18:31:12;16.17;;;10.13;;
7412;SDS011;3748;48.136;11.538;2022-12-07T18:33:40;15.27;;;9.10;;
7412;SDS011;3748;48.136;11.538;2022-12-07T18:36:08;18.63;;;9.20;;
7412;SDS011;3748;48.136;11.538;2022-12-07T18:38:36;16.30;;;9.50;;
7412;SDS011;3748;48.136;11.538;2022-12-07T18:41:05;17.83;;;9.60;;
7412;SDS011;3748;48.136;11.538;2022-12-07T18:43:33;16.93;;;9.23;;
7412;SDS011;3748;48.136;11.538;2022-12-07T18:46:00;20.73;;;10.77;;
7412;SDS011;3748;48.136;11.538;2022-12-07T18:48:34;18.50;;;9.83;;
7412;SDS011;3748;48.136;11.538;2022-12-07T18:51:03;16.43;;;10.97;;
7412;SDS011;3748;48.136;11.538;2022-12-07T18:53:31;17.57;;;10.50;;
7412;SDS011;3748;48.136;11.538;2022-12-07T18:56:01;18.30;;;10.87;;
7412;SDS011;3748;48.136;11.538;2022-12-07T18:58:29;16.63;;;10.07;;
7412;SDS011;3748;48.136;11.538;2022-12-07T19:00:56;19.27;;;11.00;;
7412;SDS011;3748;48.136;11.538;2022-12-07T19:03:26;19.27;;;11.50;;
7412;SDS011;3748;48.136;11.538;2022-12-07T19:05:58;15.20;;;10.50;;
7412;SDS011;3748;48.136;11.538;2022-12-07T19:08:33;20.67;;;12.00;;
7412;SDS011;3748;48.136;11.538;2022-12-07T19:11:02;21.47;;;10.97;;
7412;SDS011;3748;48.136;11.538;2022-12-07T19:13:50;17.70;;;10.37;;
7412;SDS011;3748;48.136;11.538;2022-12-07T19:16:17;17.47;;;10.80;;
7412;SDS011;3748;48.136;11.538;2022-12-07T19:18:44;14.30;;;10.00;;
7412;SDS011;3748;48.136;11.538;2022-12-07T19:21:11;18.73;;;11.50;;
7412;SDS011;3748;48.136;11.538;2022-12-07T19:23:39;16.30;;;10.17;;
7412;SDS011;3748;48.136;11.538;2022-12-07T19:26:07;16.93;;;10.17;;
7412;SDS011;3748;48.136;11.538;2022-12-07T19:28:35;21.83;;;9.87;;
7412;SDS011;3748;48.136;11.538;2022-12-07T19:31:04;23.43;;;12.23;;
7412;SDS011;3748;48.136;11.538;2022-12-07T19:33:31;17.90;;;9.67;;
7412;SDS011;3748;48.136;11.538;2022-12-07T19:35:58;19.17;;;11.17;;
7412;SDS011;3748;48.136;11.538;2022-12-07T19:38:26;16.10;;;10.10;;
7412;SDS011;3748;48.136;11.538;2022-12-07T19:40:53;26.70;;;11.93;;
7412;SDS011;3748;48.136;11.538;2022-12-07T19:43:21;14.80;;;9.23;;
7412;SDS011;3748;48.136;11.538;2022-12-07T19:45:49;18.93;;;11.03;;
7412;SDS011;3748;48.136;11.538;2022-12-07T19:48:16;20.67;;;11.03;;
7412;SDS011;3748;48.136;11.538;2022-12-07T19:50:43;18.00;;;11.27;;
7412;SDS011;3748;48.136;11.538;2022-12-07T19:53:12;19.00;;;11.37;;
7412;SDS011;3748;48.136;11.538;2022-12-07T19:55:39;20.47;;;11.00;;
7412;SDS011;3748;48.136;11.538;2022-12-07T19:58:07;16.30;;;10.97;;
7412;SDS011;3748;48.136;11.538;2022-12-07T20:00:35;16.40;;;11.30;;
7412;SDS011;3748;48.136;11.538;2022-12-07T20:03:02;19.83;;;11.37;;
7412;SDS011;3748;48.136;11.538;2022-12-07T20:05:29;14.10;;;9.73;;
7412;SDS011;3748;48.136;11.538;2022-12-07T20:07:56;19.33;;;10.87;;
7412;SDS011;3748;48.136;11.538;2022-12-07T20:10:23;20.03;;;10.43;;
7412;SDS011;3748;48.136;11.538;2022-12-07T20:12:50;16.90;;;10.30;;
7412;SDS011;3748;48.136;11.538;2022-12-07T20:15:37;17.70;;;11.70;;
7412;SDS011;3748;48.136;11.538;2022-12-07T20:18:04;16.33;;;10.70;;
7412;SDS011;3748;48.136;11.538;2022-12-07T20:20:31;19.03;;;11.70;;
7412;SDS011;3748;48.136;11.538;2022-12-07T20:22:58;15.43;;;9.70;;
7412;SDS011;3748;48.136;11.538;2022-12-07T20:25:25;16.73;;;10.83;;
7412;SDS011;3748;48.136;11.538;2022-12-07T20:27:52;17.93;;;9.77;;
7412;SDS011;3748;48.136;11.538;2022-12-07T20:30:19;19.33;;;10.50;;
7412;SDS011;3748;48.136;11.538;2022-12-07T20:32:47;18.90;;;11.17;;